Time;durP1;ratioP1;P1;durP2;ratioP2;P2;SDS_P1;SDS_P2;PMS_P1;PMS_P2;Temp;Humidity;BMP_temperature;BMP_pressure;BME280_temperature;BME280_humidity;BME280_pressure;Samples;Min_cycle;Max_cycle;Signal;HPM_P1;HPM_P2
2022/09/29 00:00:50;;;;;;;1999.90;999.90;;;13.60;99.90;;;;;;4994484;28;20030;-75
2022/09/29 00:03:16;;;;;;;1999.90;999.90;;;13.70;99.90;;;;;;4993839;28;20053;-75
2022/09/29 00:05:50;;;;;;;1999.90;999.90;;;13.70;99.90;;;;;;4992375;28;20391;-77
2022/09/29 00:08:17;;;;;;;1999.90;999.90;;;13.70;99.90;;;;;;4992518;28;20040;-75
2022/09/29 00:10:43;;;;;;;1999.90;999.90;;;13.70;99.90;;;;;;4994189;28;20026;-75
2022/09/29 00:13:09;;;;;;;1999.90;999.90;;;13.70;99.90;;;;;;4976250;28;20074;-75
2022/09/29 00:15:34;;;;;;;1999.90;999.90;;;13.70;99.90;;;;;;4974073;28;20490;-77
2022/09/29 00:18:00;;;;;;;1999.90;999.90;;;13.60;99.90;;;;;;4987726;28;20030;-76
2022/09/29 00:20:26;;;;;;;1999.90;999.90;;;13.60;99.90;;;;;;4992747;28;20096;-75
2022/09/29 00:22:51;;;;;;;1999.90;999.90;;;13.50;99.90;;;;;;4992590;28;20081;-75
2022/09/29 00:25:18;;;;;;;1999.90;999.90;;;13.50;99.90;;;;;;4992149;28;20034;-76
2022/09/29 00:27:44;;;;;;;1999.90;999.90;;;13.50;99.90;;;;;;4993667;28;20058;-76
2022/09/29 00:30:10;;;;;;;1999.90;999.90;;;13.40;99.90;;;;;;4993434;28;20054;-75
2022/09/29 00:32:35;;;;;;;1999.90;999.90;;;13.40;99.90;;;;;;4993246;28;20035;-76
2022/09/29 00:35:01;;;;;;;1999.90;999.90;;;13.40;99.90;;;;;;4993589;28;20034;-75
2022/09/29 00:37:27;;;;;;;1999.90;999.90;;;13.30;99.90;;;;;;4993421;28;20109;-75
2022/09/29 00:39:55;;;;;;;1999.90;999.90;;;13.30;99.90;;;;;;4993294;28;20026;-77
2022/09/29 00:42:21;;;;;;;1999.90;999.90;;;13.20;99.90;;;;;;4993450;28;20030;-75
2022/09/29 00:44:58;;;;;;;1999.90;999.90;;;13.10;99.90;;;;;;4993394;28;20030;-75
2022/09/29 00:47:24;;;;;;;1999.90;999.90;;;13.10;99.90;;;;;;4993392;28;20033;-75
2022/09/29 00:50:13;;;;;;;1999.90;999.90;;;13.10;99.90;;;;;;4993135;28;20031;-75
2022/09/29 00:52:45;;;;;;;1999.90;999.90;;;13.10;99.90;;;;;;4993540;28;20034;-75
2022/09/29 00:55:26;;;;;;;1999.90;999.90;;;13.10;99.90;;;;;;4993310;28;20018;-75
2022/09/29 00:58:01;;;;;;;1999.90;999.90;;;13.00;99.90;;;;;;4991710;28;20042;-75
2022/09/29 01:00:27;;;;;;;1999.90;999.90;;;13.00;99.90;;;;;;4993317;28;20030;-77
2022/09/29 01:03:08;;;;;;;1999.90;999.90;;;13.00;99.90;;;;;;4993135;28;20034;-75
2022/09/29 01:05:44;;;;;;;1999.90;999.90;;;12.90;99.90;;;;;;4991685;28;20054;-76
2022/09/29 01:08:28;;;;;;;1999.90;999.90;;;12.90;99.90;;;;;;4993001;28;20130;-77
2022/09/29 01:10:56;;;;;;;1999.90;999.90;;;12.80;99.90;;;;;;4991969;28;20516;-75
2022/09/29 01:13:22;;;;;;;1999.90;999.90;;;12.90;99.90;;;;;;4973406;28;20054;-75
2022/09/29 01:15:48;;;;;;;1999.90;999.90;;;12.80;99.90;;;;;;4973441;28;20026;-76
2022/09/29 01:18:13;;;;;;;1999.90;999.90;;;12.80;99.90;;;;;;4988134;28;20120;-75
2022/09/29 01:21:02;;;;;;;1999.90;999.90;;;12.80;99.90;;;;;;4991062;28;20520;-77
2022/09/29 01:24:03;;;;;;;1999.90;999.90;;;12.80;99.90;;;;;;4992520;28;20035;-76
2022/09/29 01:26:43;;;;;;;1999.90;999.90;;;12.80;99.90;;;;;;5010548;28;20025;-76
2022/09/29 01:29:11;;;;;;;1999.90;999.90;;;12.80;99.90;;;;;;4994530;28;20042;-75
2022/09/29 01:32:04;;;;;;;1999.90;999.90;;;12.90;99.90;;;;;;4992816;28;20023;-77
2022/09/29 01:35:12;;;;;;;1999.90;999.90;;;12.90;99.90;;;;;;4991134;28;20081;-75
2022/09/29 01:38:06;;;;;;;1999.90;999.90;;;12.90;99.90;;;;;;4991171;28;20105;-75
2022/09/29 01:40:36;;;;;;;1999.90;999.90;;;12.80;99.90;;;;;;4993228;28;20046;-75
2022/09/29 01:43:13;;;;;;;1999.90;999.90;;;12.80;99.90;;;;;;4992872;28;20105;-75
2022/09/29 01:45:46;;;;;;;1999.90;999.90;;;12.80;99.90;;;;;;4992595;28;20023;-75
2022/09/29 01:48:18;;;;;;;1999.90;999.90;;;12.80;99.90;;;;;;4995730;28;20121;-77
2022/09/29 01:50:52;;;;;;;1999.90;999.90;;;12.80;99.90;;;;;;4997100;28;20482;-75
2022/09/29 01:53:22;;;;;;;1999.90;999.90;;;12.80;99.90;;;;;;4997116;28;20031;-75
2022/09/29 01:55:57;;;;;;;1999.90;999.90;;;12.80;99.90;;;;;;4996001;28;20486;-75
2022/09/29 01:58:37;;;;;;;1999.90;999.90;;;12.80;99.90;;;;;;4996515;28;20030;-77
2022/09/29 02:01:08;;;;;;;1999.90;999.90;;;12.80;99.90;;;;;;4996544;28;20037;-77
2022/09/29 02:03:39;;;;;;;1999.90;999.90;;;12.80;99.90;;;;;;4994566;28;20034;-75
2022/09/29 02:06:39;;;;;;;1999.90;999.90;;;12.70;99.90;;;;;;4996013;28;20543;-75
2022/09/29 02:09:11;;;;;;;1999.90;999.90;;;12.70;99.90;;;;;;4994515;28;20508;-76
2022/09/29 02:11:40;;;;;;;1999.90;999.90;;;12.70;99.90;;;;;;4988973;28;20031;-77
2022/09/29 02:14:28;;;;;;;1999.90;999.90;;;12.70;99.90;;;;;;4976448;28;20030;-76
2022/09/29 02:17:11;;;;;;;1999.90;999.90;;;12.70;99.90;;;;;;4981852;28;20489;-75
2022/09/29 02:19:41;;;;;;;1999.90;999.90;;;12.70;99.90;;;;;;4995407;28;20546;-75
2022/09/29 02:22:07;;;;;;;1999.90;999.90;;;12.70;99.90;;;;;;4995141;28;20030;-75
2022/09/29 02:24:32;;;;;;;1999.90;999.90;;;12.70;99.90;;;;;;4994304;28;20041;-75
2022/09/29 02:26:58;;;;;;;1999.90;999.90;;;12.70;99.90;;;;;;4996140;28;20085;-75
2022/09/29 02:29:25;;;;;;;1999.90;999.90;;;12.70;99.90;;;;;;4994297;28;20038;-75
2022/09/29 02:31:51;;;;;;;1999.90;999.90;;;12.50;99.90;;;;;;4995194;28;20022;-75
2022/09/29 02:34:20;;;;;;;1999.90;999.90;;;12.40;99.90;;;;;;4995413;28;20077;-75
2022/09/29 02:37:01;;;;;;;1999.90;999.90;;;12.40;99.90;;;;;;4995767;28;20109;-75
2022/09/29 02:39:58;;;;;;;1999.90;999.90;;;12.30;99.90;;;;;;4994177;28;20373;-75
2022/09/29 02:42:46;;;;;;;1999.90;999.90;;;12.30;99.90;;;;;;4994196;28;20030;-76
2022/09/29 02:45:25;;;;;;;1999.90;999.90;;;12.20;99.90;;;;;;4995473;28;20109;-76
2022/09/29 02:48:17;;;;;;;1999.90;999.90;;;12.20;99.90;;;;;;4995296;28;20386;-77
2022/09/29 02:51:26;;;;;;;1999.90;999.90;;;12.10;99.90;;;;;;4994776;28;20039;-76
2022/09/29 02:53:52;;;;;;;1999.90;999.90;;;12.10;99.90;;;;;;4976808;28;20041;-77
2022/09/29 02:56:51;;;;;;;1999.90;999.90;;;12.10;99.90;;;;;;4992864;28;20026;-76
2022/09/29 02:59:26;;;;;;;1999.90;999.90;;;12.10;99.90;;;;;;4991827;28;20038;-75
2022/09/29 03:01:54;;;;;;;1999.90;999.90;;;12.10;99.90;;;;;;4992864;28;20502;-75
2022/09/29 03:04:23;;;;;;;1999.90;999.90;;;12.10;99.90;;;;;;4992829;28;20046;-77
2022/09/29 03:06:49;;;;;;;1999.90;999.90;;;12.10;99.90;;;;;;4993047;28;20069;-77
2022/09/29 03:09:14;;;;;;;1999.90;999.90;;;12.10;99.90;;;;;;4992597;28;20038;-75
2022/09/29 03:11:40;;;;;;;1999.90;999.90;;;12.20;99.90;;;;;;4986473;28;20038;-75
2022/09/29 03:14:07;;;;;;;1999.90;999.90;;;12.20;99.90;;;;;;4957258;28;20041;-75
2022/09/29 03:16:33;;;;;;;1999.90;999.90;;;12.20;99.90;;;;;;4975209;28;20026;-75
2022/09/29 03:18:59;;;;;;;1999.90;999.90;;;12.30;99.90;;;;;;4992552;28;20038;-75
2022/09/29 03:21:25;;;;;;;1999.90;999.90;;;12.30;99.90;;;;;;4976128;28;20027;-75
2022/09/29 03:23:50;;;;;;;1999.90;999.90;;;12.30;99.90;;;;;;4976681;28;20073;-75
2022/09/29 03:26:16;;;;;;;1999.90;999.90;;;12.20;99.90;;;;;;4994688;28;20034;-75
2022/09/29 03:28:41;;;;;;;1999.90;999.90;;;12.30;99.90;;;;;;4994598;28;20113;-75
2022/09/29 03:31:08;;;;;;;1999.90;999.90;;;12.20;99.90;;;;;;4994833;28;20478;-77
2022/09/29 03:33:37;;;;;;;1999.90;999.90;;;12.20;99.90;;;;;;4994368;28;20023;-75
2022/09/29 03:36:04;;;;;;;1999.90;999.90;;;12.20;99.90;;;;;;4994441;28;20498;-75
2022/09/29 03:38:30;;;;;;;1999.90;999.90;;;12.20;99.90;;;;;;4992923;28;20401;-75
2022/09/29 03:40:56;;;;;;;1999.90;999.90;;;12.20;99.90;;;;;;4994819;28;20402;-75
2022/09/29 03:43:21;;;;;;;1999.90;999.90;;;12.20;99.90;;;;;;4993200;28;20061;-75
2022/09/29 03:45:52;;;;;;;1999.90;999.90;;;12.20;99.90;;;;;;4994178;28;20026;-75
2022/09/29 03:48:19;;;;;;;1999.90;999.90;;;12.20;99.90;;;;;;5002164;28;20040;-75
2022/09/29 03:50:45;;;;;;;1999.90;999.90;;;12.30;99.90;;;;;;4994698;28;20018;-75
2022/09/29 03:53:11;;;;;;;1999.90;999.90;;;12.30;99.90;;;;;;4994316;28;20030;-76
2022/09/29 03:55:37;;;;;;;1999.90;999.90;;;12.30;99.90;;;;;;4994392;28;20560;-76
2022/09/29 03:58:03;;;;;;;1999.90;999.90;;;12.30;99.90;;;;;;4994210;28;20161;-77
2022/09/29 04:00:29;;;;;;;1999.90;999.90;;;12.30;99.90;;;;;;4994023;28;20057;-75
2022/09/29 04:02:54;;;;;;;1999.90;999.90;;;12.30;99.90;;;;;;4993794;28;20113;-76
2022/09/29 04:05:20;;;;;;;1999.90;999.90;;;12.20;99.90;;;;;;4992834;28;20030;-75
2022/09/29 04:07:46;;;;;;;1999.90;999.90;;;12.20;99.90;;;;;;4993673;28;20034;-76
2022/09/29 04:10:12;;;;;;;1999.90;999.90;;;12.20;99.90;;;;;;4992559;28;20077;-75
2022/09/29 04:12:38;;;;;;;1999.90;999.90;;;12.30;99.90;;;;;;4990823;28;20449;-75
2022/09/29 04:15:04;;;;;;;1999.90;999.90;;;12.20;99.90;;;;;;4989441;28;20023;-75
2022/09/29 04:17:29;;;;;;;1999.90;999.90;;;12.20;99.90;;;;;;4998113;28;20570;-75
2022/09/29 04:19:55;;;;;;;1999.90;999.90;;;12.20;99.90;;;;;;4992893;28;20105;-75
2022/09/29 04:22:21;;;;;;;1999.90;999.90;;;12.20;99.90;;;;;;4992750;28;20034;-75
2022/09/29 04:24:50;;;;;;;1999.90;999.90;;;12.10;99.90;;;;;;4992417;28;20081;-75
2022/09/29 04:27:17;;;;;;;1999.90;999.90;;;12.10;99.90;;;;;;4993731;28;20505;-75
2022/09/29 04:29:42;;;;;;;1999.90;999.90;;;12.00;99.90;;;;;;4992592;28;20029;-75
2022/09/29 04:32:08;;;;;;;1999.90;999.90;;;12.00;99.90;;;;;;4993324;28;20472;-75
2022/09/29 04:34:34;;;;;;;1999.90;999.90;;;12.00;99.90;;;;;;4992060;28;20029;-76
2022/09/29 04:37:00;;;;;;;1999.90;999.90;;;12.00;99.90;;;;;;4993331;28;20056;-76
2022/09/29 04:39:26;;;;;;;1999.90;999.90;;;12.00;99.90;;;;;;4991961;28;20023;-76
2022/09/29 04:41:52;;;;;;;1999.90;999.90;;;12.00;99.90;;;;;;4993268;28;20030;-76
2022/09/29 04:44:23;;;;;;;1999.90;999.90;;;12.00;99.90;;;;;;4993337;28;20556;-75
2022/09/29 04:46:50;;;;;;;1999.90;999.90;;;12.00;99.90;;;;;;4993481;28;20026;-77
2022/09/29 04:49:18;;;;;;;1999.90;999.90;;;12.00;99.90;;;;;;5008096;28;20101;-75
2022/09/29 04:51:44;;;;;;;1999.90;999.90;;;12.00;99.90;;;;;;4993062;28;20057;-75
2022/09/29 04:54:10;;;;;;;1999.90;999.90;;;12.00;99.90;;;;;;4993177;28;20054;-75
2022/09/29 04:56:36;;;;;;;1999.90;999.90;;;12.00;99.90;;;;;;4973861;28;20553;-75
2022/09/29 04:59:01;;;;;;;1999.90;999.90;;;12.00;99.90;;;;;;4973758;28;20037;-75
2022/09/29 05:01:28;;;;;;;1999.90;999.90;;;11.90;99.90;;;;;;4973129;28;20110;-77
2022/09/29 05:03:54;;;;;;;1999.90;999.90;;;11.90;99.90;;;;;;4973344;28;20027;-76
2022/09/29 05:06:20;;;;;;;1999.90;999.90;;;11.80;99.90;;;;;;4973156;28;20063;-75
2022/09/29 05:08:46;;;;;;;1999.90;999.90;;;11.70;99.90;;;;;;4973395;28;20026;-77
2022/09/29 05:11:12;;;;;;;1999.90;999.90;;;11.60;99.90;;;;;;4973674;28;20061;-75
2022/09/29 05:13:37;;;;;;;1999.90;999.90;;;11.60;99.90;;;;;;4972858;28;20517;-75
2022/09/29 05:16:03;;;;;;;1999.90;999.90;;;11.50;99.90;;;;;;4973188;28;20034;-75
2022/09/29 05:18:29;;;;;;;1999.90;999.90;;;11.40;99.90;;;;;;4990427;28;20030;-75
2022/09/29 05:20:55;;;;;;;1999.90;999.90;;;11.40;99.90;;;;;;4992643;28;20406;-77
2022/09/29 05:23:21;;;;;;;1999.90;999.90;;;11.30;99.90;;;;;;4995435;28;20038;-75
2022/09/29 05:25:47;;;;;;;1999.90;999.90;;;11.30;99.90;;;;;;4996726;28;20038;-76
2022/09/29 05:28:14;;;;;;;1999.90;999.90;;;11.30;99.90;;;;;;4996507;28;20029;-75
2022/09/29 05:30:41;;;;;;;1999.90;999.90;;;11.30;99.90;;;;;;4996734;28;20037;-77
2022/09/29 05:33:06;;;;;;;1999.90;999.90;;;11.30;99.90;;;;;;4996147;28;20036;-75
2022/09/29 05:35:32;;;;;;;1999.90;999.90;;;11.30;99.90;;;;;;4988781;28;20035;-75
2022/09/29 05:37:57;;;;;;;1999.90;999.90;;;11.30;99.90;;;;;;4994776;28;20034;-76
2022/09/29 05:40:23;;;;;;;1999.90;999.90;;;11.40;99.90;;;;;;4993473;28;20096;-76
2022/09/29 05:42:50;;;;;;;1999.90;999.90;;;11.40;99.90;;;;;;4980392;28;20498;-76
2022/09/29 05:45:16;;;;;;;1999.90;999.90;;;11.40;99.90;;;;;;4990750;28;20101;-76
2022/09/29 05:47:43;;;;;;;1999.90;999.90;;;11.40;99.90;;;;;;4994332;28;20030;-75
2022/09/29 05:50:10;;;;;;;1999.90;999.90;;;11.40;99.90;;;;;;4994687;28;20026;-75
2022/09/29 05:52:36;;;;;;;1999.90;999.90;;;11.40;99.90;;;;;;4992699;28;20026;-76
2022/09/29 05:55:02;;;;;;;1999.90;999.90;;;11.50;99.90;;;;;;4981822;28;20546;-76
2022/09/29 05:57:28;;;;;;;1999.90;999.90;;;11.50;99.90;;;;;;4988440;28;20501;-77
2022/09/29 05:59:54;;;;;;;1999.90;999.90;;;11.50;99.90;;;;;;4988100;28;20057;-76
2022/09/29 06:02:20;;;;;;;1999.90;999.90;;;11.50;99.90;;;;;;4995507;28;20018;-76
2022/09/29 06:04:46;;;;;;;1999.90;999.90;;;11.50;99.90;;;;;;4994229;28;20042;-78
2022/09/29 06:07:11;;;;;;;1999.90;999.90;;;11.50;99.90;;;;;;4995197;28;20468;-77
2022/09/29 06:09:37;;;;;;;1999.90;999.90;;;11.50;99.90;;;;;;4989167;28;20436;-75
2022/09/29 06:12:03;;;;;;;1999.90;999.90;;;11.60;99.90;;;;;;4985851;28;20401;-78
2022/09/29 06:14:29;;;;;;;1999.90;999.90;;;11.60;99.90;;;;;;4981787;28;20533;-75
2022/09/29 06:16:54;;;;;;;1999.90;999.90;;;11.60;99.90;;;;;;4990549;28;20065;-76
2022/09/29 06:19:20;;;;;;;1999.90;999.90;;;11.60;99.90;;;;;;4994236;28;20054;-76
2022/09/29 06:21:46;;;;;;;1999.90;999.90;;;11.60;99.90;;;;;;4989744;28;20081;-76
2022/09/29 06:24:11;;;;;;;1999.90;999.90;;;11.60;99.90;;;;;;4986211;28;20133;-75
2022/09/29 06:26:37;;;;;;;1999.90;999.90;;;11.60;99.90;;;;;;4993597;28;20165;-76
2022/09/29 06:29:03;;;;;;;1999.90;999.90;;;11.60;99.90;;;;;;4986628;28;20192;-75
2022/09/29 06:31:30;;;;;;;1999.90;999.90;;;11.60;99.90;;;;;;4994439;28;20117;-78
2022/09/29 06:34:01;;;;;;;1999.90;999.90;;;11.50;99.90;;;;;;4993590;28;20210;-78
2022/09/29 06:39:24;;;;;;;1999.90;999.90;;;11.70;99.90;;;;;;4978676;28;20130;-75
2022/09/29 06:41:53;;;;;;;1999.90;999.90;;;11.70;99.90;;;;;;4976595;28;20058;-77
2022/09/29 06:44:20;;;;;;;1999.90;999.90;;;11.80;99.90;;;;;;4987781;28;20026;-78
2022/09/29 06:46:46;;;;;;;1999.90;999.90;;;11.90;99.90;;;;;;4993289;28;20319;-75
2022/09/29 06:49:14;;;;;;;1999.90;999.90;;;11.90;99.90;;;;;;4992140;28;20018;-76
2022/09/29 06:51:40;;;;;;;1999.90;999.90;;;12.00;99.90;;;;;;4991386;28;20475;-76
2022/09/29 06:54:05;;;;;;;1999.90;999.90;;;12.00;99.90;;;;;;4990616;28;20058;-78
2022/09/29 06:56:31;;;;;;;1999.90;999.90;;;12.10;99.90;;;;;;4987528;28;20433;-78
2022/09/29 06:58:57;;;;;;;1999.90;999.90;;;12.10;99.90;;;;;;4980404;28;20058;-76
2022/09/29 07:01:22;;;;;;;1999.90;999.90;;;12.20;99.90;;;;;;4991692;28;20041;-77
2022/09/29 07:03:48;;;;;;;1999.90;999.90;;;12.30;99.90;;;;;;4992566;28;20065;-75
2022/09/29 07:06:14;;;;;;;1999.90;999.90;;;12.40;99.90;;;;;;4991725;28;20069;-75
2022/09/29 07:08:40;;;;;;;1999.90;999.90;;;12.60;99.90;;;;;;4991511;28;20497;-75
2022/09/29 07:11:09;;;;;;;1999.90;999.90;;;12.70;99.90;;;;;;4989570;28;20085;-79
2022/09/29 07:13:36;;;;;;;1999.90;999.90;;;12.80;99.90;;;;;;4988056;28;20037;-77
2022/09/29 07:16:08;;;;;;;1999.90;999.90;;;12.90;99.90;;;;;;4984994;28;20034;-75
2022/09/29 07:18:36;;;;;;;1999.90;999.90;;;13.00;99.90;;;;;;4991247;28;20448;-79
2022/09/29 07:21:03;;;;;;;1999.90;999.90;;;13.10;99.90;;;;;;4992632;28;20057;-75
2022/09/29 07:23:28;;;;;;;1999.90;999.90;;;13.10;99.90;;;;;;4985560;28;20066;-76
2022/09/29 07:25:54;;;;;;;1999.90;999.90;;;13.30;99.90;;;;;;5005461;28;20031;-79
2022/09/29 07:28:20;;;;;;;1999.90;999.90;;;13.40;99.90;;;;;;4989098;28;20516;-76
2022/09/29 07:30:45;;;;;;;1999.90;999.90;;;13.40;99.90;;;;;;4980823;28;20033;-77
2022/09/29 07:33:11;;;;;;;1999.90;999.90;;;13.50;99.90;;;;;;4989991;28;20445;-74
2022/09/29 07:35:36;;;;;;;1999.90;999.90;;;13.50;99.90;;;;;;4988208;28;20061;-76
2022/09/29 07:38:02;;;;;;;1999.90;999.90;;;13.50;99.90;;;;;;4990793;28;20030;-79
2022/09/29 07:40:28;;;;;;;1999.90;999.90;;;13.50;99.90;;;;;;4992140;28;20044;-74
2022/09/29 07:42:53;;;;;;;1999.90;999.90;;;13.40;99.90;;;;;;4990501;28;20030;-75
2022/09/29 07:45:19;;;;;;;1999.90;999.90;;;13.50;99.90;;;;;;4988675;28;20034;-75
2022/09/29 07:47:45;;;;;;;1999.90;999.90;;;13.50;99.90;;;;;;4990975;28;20045;-76
2022/09/29 07:50:11;;;;;;;1999.90;999.90;;;13.60;99.90;;;;;;4988303;28;20038;-76
2022/09/29 07:52:37;;;;;;;1999.90;999.90;;;13.70;99.90;;;;;;4987171;28;20739;-79
2022/09/29 07:55:03;;;;;;;1999.90;999.90;;;13.90;99.90;;;;;;4991653;28;20026;-75
2022/09/29 07:57:29;;;;;;;1999.90;999.90;;;14.10;99.90;;;;;;4989759;28;20116;-75
2022/09/29 07:59:57;;;;;;;1999.90;999.90;;;14.10;99.90;;;;;;4989117;28;20517;-79
2022/09/29 08:02:23;;;;;;;1999.90;999.90;;;14.40;99.90;;;;;;4987629;28;20038;-78
2022/09/29 08:04:49;;;;;;;1999.90;999.90;;;14.60;99.90;;;;;;4987207;28;20038;-78
2022/09/29 08:07:15;;;;;;;1999.90;999.90;;;14.40;99.90;;;;;;4989398;28;20050;-79
2022/09/29 08:09:43;;;;;;;1999.90;999.90;;;14.60;99.90;;;;;;4981691;28;20030;-78
2022/09/29 08:12:08;;;;;;;1999.90;999.90;;;15.50;99.90;;;;;;4990265;28;20512;-76
2022/09/29 08:14:34;;;;;;;1999.90;999.90;;;16.30;99.90;;;;;;4986606;28;20072;-76
2022/09/29 08:17:00;;;;;;;1999.90;999.90;;;17.10;99.90;;;;;;4990810;28;20065;-76
2022/09/29 08:19:27;;;;;;;1999.90;999.90;;;19.50;99.90;;;;;;4990702;28;20109;-79
2022/09/29 08:21:53;;;;;;;1999.90;999.90;;;20.00;99.90;;;;;;4991663;28;20033;-76
2022/09/29 08:24:18;;;;;;;1999.90;999.90;;;19.40;99.90;;;;;;4990318;28;20042;-77
2022/09/29 08:26:44;;;;;;;1999.90;999.90;;;19.60;99.90;;;;;;4989049;28;20034;-79
2022/09/29 08:29:11;;;;;;;1999.90;999.90;;;19.90;99.80;;;;;;4991621;28;20026;-79
2022/09/29 08:31:37;;;;;;;1999.90;999.90;;;19.80;99.90;;;;;;4990681;28;20026;-76
2022/09/29 08:34:03;;;;;;;1999.90;999.90;;;19.90;99.50;;;;;;4989775;28;20486;-76
2022/09/29 08:36:28;;;;;;;1999.90;999.90;;;20.00;99.90;;;;;;4987252;28;20397;-79
2022/09/29 08:38:56;;;;;;;1999.90;999.90;;;20.30;98.60;;;;;;4988930;28;20371;-76
2022/09/29 08:41:43;;;;;;;1999.90;999.90;;;20.30;98.60;;;;;;4989377;28;20097;-79
2022/09/29 08:44:18;;;;;;;1999.90;999.90;;;20.70;98.10;;;;;;4985451;28;20445;-76
2022/09/29 08:47:12;;;;;;;1999.90;999.90;;;21.60;97.00;;;;;;4987091;28;20030;-79
2022/09/29 08:49:53;;;;;;;1999.90;999.90;;;22.70;95.50;;;;;;4981906;28;20042;-76
2022/09/29 08:52:33;;;;;;;1999.90;999.90;;;22.90;94.90;;;;;;4983964;28;20041;-77
2022/09/29 08:55:27;;;;;;;1999.90;999.90;;;21.30;96.10;;;;;;4986276;28;20113;-79
2022/09/29 08:57:57;;;;;;;1999.90;999.90;;;20.70;96.10;;;;;;4986697;28;20077;-76
2022/09/29 09:00:37;;;;;;;1999.90;999.90;;;20.40;96.50;;;;;;4989331;28;20363;-76
2022/09/29 09:03:21;;;;;;;1999.90;999.90;;;20.20;97.30;;;;;;4986021;28;20157;-76
2022/09/29 09:06:24;;;;;;;1999.90;999.90;;;19.50;98.40;;;;;;4985760;28;20051;-75
2022/09/29 09:09:17;;;;;;;1999.90;999.90;;;19.30;97.50;;;;;;4990855;28;20496;-79
2022/09/29 09:12:06;;;;;;;1999.90;999.90;;;19.60;97.40;;;;;;4987247;28;20034;-81
2022/09/29 09:14:55;;;;;;;1999.90;999.90;;;19.30;97.90;;;;;;4987213;28;20069;-76
2022/09/29 09:17:48;;;;;;;1999.90;999.90;;;19.50;96.80;;;;;;4985816;28;20049;-76
2022/09/29 09:20:46;;;;;;;1999.90;999.90;;;19.80;97.10;;;;;;4986046;28;20520;-78
2022/09/29 09:23:20;;;;;;;1999.90;999.90;;;19.40;97.60;;;;;;4988573;28;20038;-78
2022/09/29 09:26:01;;;;;;;1999.90;999.90;;;19.20;97.90;;;;;;4987699;28;20048;-75
2022/09/29 09:28:43;;;;;;;1999.90;999.90;;;19.20;97.70;;;;;;4987206;28;20018;-77
2022/09/29 09:31:16;;;;;;;1999.90;999.90;;;18.80;98.40;;;;;;4982631;28;20565;-75
2022/09/29 09:34:13;;;;;;;1999.90;999.90;;;18.80;98.10;;;;;;4990360;28;20065;-79
2022/09/29 09:36:49;;;;;;;1999.90;999.90;;;19.10;98.80;;;;;;4988262;28;20046;-76
2022/09/29 09:39:33;;;;;;;1999.90;999.90;;;18.80;99.20;;;;;;4989683;28;20390;-75
2022/09/29 09:42:06;;;;;;;1999.90;999.90;;;18.40;98.30;;;;;;4989903;28;20574;-74
2022/09/29 09:44:36;;;;;;;1999.90;999.90;;;18.30;99.80;;;;;;4984208;28;20030;-76
2022/09/29 09:47:19;;;;;;;1999.90;999.90;;;18.20;99.70;;;;;;4988353;28;20031;-80
2022/09/29 09:49:50;;;;;;;;;;;18.10;99.50;;;;;;4986331;28;20449;-79
2022/09/29 09:52:39;;;;;;;1999.90;999.90;;;18.00;99.90;;;;;;4984010;28;19932;-80
2022/09/29 09:55:14;;;;;;;1999.90;999.90;;;18.20;99.90;;;;;;4989027;28;20035;-76
2022/09/29 09:57:55;;;;;;;1999.90;999.90;;;18.00;99.90;;;;;;4986798;28;20070;-76
2022/09/29 10:00:23;;;;;;;1999.90;999.90;;;17.80;99.90;;;;;;4988325;28;20057;-75
2022/09/29 10:02:54;;;;;;;1999.90;999.90;;;17.80;99.90;;;;;;4990653;28;20537;-75
2022/09/29 10:05:25;;;;;;;1999.90;999.90;;;18.00;99.90;;;;;;4988915;28;20081;-75
2022/09/29 10:07:51;;;;;;;1999.90;999.90;;;18.20;99.90;;;;;;4988777;28;20060;-75
2022/09/29 10:10:23;;;;;;;1999.90;999.90;;;18.30;99.90;;;;;;4993573;28;20038;-76
2022/09/29 10:13:05;;;;;;;1999.90;999.90;;;18.40;99.90;;;;;;4993531;28;20034;-75
2022/09/29 10:15:34;;;;;;;1999.90;999.90;;;18.50;99.90;;;;;;4987104;28;20049;-75
2022/09/29 10:18:06;;;;;;;1999.90;999.90;;;18.10;99.90;;;;;;4991210;28;20501;-76
2022/09/29 10:20:37;;;;;;;1999.90;999.90;;;18.20;99.90;;;;;;4992605;28;20034;-75
2022/09/29 10:23:32;;;;;;;1999.90;999.90;;;18.10;99.90;;;;;;4994375;28;20023;-75
2022/09/29 10:26:03;;;;;;;1999.90;999.90;;;18.10;99.90;;;;;;4989004;28;20034;-79
2022/09/29 10:28:39;;;;;;;1999.90;999.90;;;18.10;99.90;;;;;;4993229;28;20042;-79
2022/09/29 10:31:19;;;;;;;1999.90;999.90;;;18.10;99.90;;;;;;4994538;28;20497;-76
2022/09/29 10:33:50;;;;;;;1999.90;999.90;;;17.80;99.90;;;;;;4994075;28;20030;-78
2022/09/29 10:36:19;;;;;;;1999.90;999.90;;;17.90;99.90;;;;;;4990711;28;20066;-78
2022/09/29 10:38:46;;;;;;;1999.90;999.90;;;17.70;99.90;;;;;;4991410;28;20405;-79
2022/09/29 10:41:12;;;;;;;1999.90;999.90;;;17.70;99.90;;;;;;4987038;28;20113;-78
2022/09/29 10:43:43;;;;;;;1999.90;999.90;;;17.70;99.90;;;;;;4985418;28;20110;-76
2022/09/29 10:46:30;;;;;;;1999.90;999.90;;;17.80;99.90;;;;;;4992954;28;20034;-76
2022/09/29 10:49:13;;;;;;;1999.90;999.90;;;17.60;99.90;;;;;;4993883;28;20045;-75
2022/09/29 10:51:46;;;;;;;1999.90;999.90;;;17.40;99.90;;;;;;4992744;28;20037;-78
2022/09/29 10:54:15;;;;;;;1999.90;999.90;;;17.50;99.90;;;;;;4993087;28;20066;-78
2022/09/29 10:56:47;;;;;;;1999.90;999.90;;;17.50;99.90;;;;;;4990763;28;20058;-76
2022/09/29 10:59:14;;;;;;;1999.90;999.90;;;17.70;99.90;;;;;;4993018;28;20394;-76
2022/09/29 11:01:56;;;;;;;1999.90;999.90;;;18.00;99.90;;;;;;4993382;28;20026;-76
2022/09/29 11:04:28;;;;;;;1999.90;999.90;;;18.00;99.90;;;;;;4990555;28;20084;-77
2022/09/29 11:06:56;;;;;;;1999.90;999.90;;;17.90;99.90;;;;;;4990587;28;20058;-77
2022/09/29 11:09:21;;;;;;;1999.90;999.90;;;18.00;99.90;;;;;;4990476;28;20160;-77
2022/09/29 11:11:47;;;;;;;1999.90;999.90;;;18.20;99.90;;;;;;4986877;28;20477;-76
2022/09/29 11:14:30;;;;;;;1999.90;999.90;;;18.10;99.90;;;;;;4990389;28;20595;-76
2022/09/29 11:17:00;;;;;;;;;;;18.20;99.90;;;;;;4989349;28;20355;-78
2022/09/29 11:19:28;;;;;;;1999.90;999.90;;;18.20;99.90;;;;;;4989851;28;19951;-79
2022/09/29 11:22:02;;;;;;;1999.90;999.90;;;18.10;99.90;;;;;;4990313;28;20086;-76
2022/09/29 11:24:27;;;;;;;1999.90;999.90;;;17.70;99.90;;;;;;4986714;28;20034;-76
2022/09/29 11:27:39;;;;;;;1999.90;999.90;;;18.00;99.90;;;;;;4990211;28;20030;-75
2022/09/29 11:30:20;;;;;;;1999.90;999.90;;;18.20;99.90;;;;;;4991963;28;20097;-77
2022/09/29 11:33:04;;;;;;;1999.90;999.90;;;18.40;99.90;;;;;;4990557;28;20034;-77
2022/09/29 11:35:44;;;;;;;1999.90;999.90;;;18.30;99.90;;;;;;4987197;28;20033;-76
2022/09/29 11:38:29;;;;;;;1999.90;999.90;;;18.20;99.90;;;;;;4990800;28;20034;-75
2022/09/29 11:41:14;;;;;;;1999.90;999.90;;;18.10;99.90;;;;;;4992031;28;20105;-75
2022/09/29 11:43:48;;;;;;;1999.90;999.90;;;17.90;99.90;;;;;;4990580;28;20041;-77
2022/09/29 11:46:21;;;;;;;1999.90;999.90;;;17.60;99.90;;;;;;4990419;28;20081;-77
2022/09/29 11:49:10;;;;;;;;;;;17.40;99.90;;;;;;4990070;28;20398;-75
2022/09/29 11:51:55;;;;;;;1999.90;999.90;;;17.60;99.90;;;;;;4986943;28;19914;-75
2022/09/29 11:54:46;;;;;;;1999.90;999.90;;;17.80;99.90;;;;;;4991012;28;20022;-78
2022/09/29 11:57:42;;;;;;;1999.90;999.90;;;17.90;99.90;;;;;;4990423;28;20030;-78
2022/09/29 12:00:13;;;;;;;1999.90;999.90;;;18.00;99.90;;;;;;4990462;28;20030;-78
2022/09/29 12:03:16;;;;;;;1999.90;999.90;;;17.50;99.90;;;;;;5003084;28;20030;-78
2022/09/29 12:05:56;;;;;;;1999.90;999.90;;;17.50;99.90;;;;;;4986571;28;20125;-78
2022/09/29 12:08:41;;;;;;;1999.90;999.90;;;17.40;99.90;;;;;;4986968;28;20517;-78
2022/09/29 12:11:09;;;;;;;1999.90;999.90;;;17.70;99.90;;;;;;4990332;28;20042;-78
2022/09/29 12:13:35;;;;;;;1999.90;999.90;;;18.20;99.90;;;;;;4989802;28;20537;-78
2022/09/29 12:16:12;;;;;;;1999.90;999.90;;;18.40;99.90;;;;;;4988043;28;20030;-78
2022/09/29 12:18:55;;;;;;;1999.90;999.90;;;18.50;99.90;;;;;;4987339;28;20034;-78
2022/09/29 12:21:40;;;;;;;1999.90;999.90;;;18.10;99.90;;;;;;4991162;28;20109;-77
2022/09/29 12:24:16;;;;;;;1999.90;999.90;;;18.10;99.90;;;;;;4989787;28;20034;-78
2022/09/29 12:26:45;;;;;;;1999.90;999.90;;;17.80;99.90;;;;;;4988804;28;20389;-79